createdAt,value
2019-03-06T00:00:06.990Z,9.5
2019-03-06T00:05:29.830Z,7.2
2019-03-06T00:10:52.586Z,7.8
2019-03-06T00:16:15.509Z,7.1
2019-03-06T00:21:38.851Z,7.6
2019-03-06T00:27:01.625Z,7.8
2019-03-06T00:32:24.388Z,7.7
2019-03-06T00:37:47.240Z,7.2
2019-03-06T00:43:09.984Z,6.9
2019-03-06T00:48:32.735Z,7.2
2019-03-06T00:53:55.458Z,7
2019-03-06T00:59:18.217Z,7
2019-03-06T01:04:41.435Z,7
2019-03-06T01:10:04.264Z,7
2019-03-06T01:15:27.232Z,6.5
2019-03-06T01:20:50.000Z,6.6
2019-03-06T01:26:12.989Z,7
2019-03-06T01:31:36.319Z,6.4
2019-03-06T01:36:59.160Z,6.6
2019-03-06T01:42:21.962Z,6.3
2019-03-06T01:47:44.730Z,6.1
2019-03-06T01:53:07.490Z,5.7
2019-03-06T01:58:30.183Z,5.5
2019-03-06T02:03:52.992Z,5.7
2019-03-06T02:09:15.602Z,5.4
2019-03-06T02:14:38.276Z,5.5
2019-03-06T02:20:00.979Z,5.1
2019-03-06T02:25:23.653Z,4.9
2019-03-06T02:30:47.216Z,4.9
2019-03-06T02:36:10.656Z,5.1
2019-03-06T02:41:33.466Z,5.4
2019-03-06T02:46:56.093Z,5.1
2019-03-06T02:52:18.793Z,5.5
2019-03-06T02:57:41.485Z,5.1
2019-03-06T03:03:04.204Z,4.6
2019-03-06T03:08:26.917Z,5.4
2019-03-06T03:13:49.595Z,5.3
2019-03-06T03:19:12.258Z,5.7
2019-03-06T03:24:35.043Z,6.2
2019-03-06T03:29:57.805Z,5.9
2019-03-06T03:35:20.623Z,6
2019-03-06T03:40:43.450Z,6.9
2019-03-06T03:46:06.125Z,7.2
2019-03-06T03:51:28.986Z,7.3
2019-03-06T03:56:51.739Z,7.7
2019-03-06T04:02:14.413Z,8
2019-03-06T04:07:37.275Z,8.4
2019-03-06T04:13:00.948Z,8.7
2019-03-06T04:18:23.700Z,8.6
2019-03-06T04:23:46.427Z,8.8
2019-03-06T04:29:09.174Z,9
2019-03-06T04:34:32.820Z,9.3
2019-03-06T04:39:55.561Z,9.2
2019-03-06T04:45:18.311Z,9.3
2019-03-06T04:50:41.060Z,9.8
2019-03-06T04:56:03.898Z,10.4
2019-03-06T05:01:26.644Z,10.7
2019-03-06T05:06:49.462Z,11.2
2019-03-06T05:12:12.320Z,11.6
2019-03-06T05:17:35.076Z,11.8
2019-03-06T05:22:57.929Z,11.6
2019-03-06T05:28:20.700Z,11.1
2019-03-06T05:33:43.500Z,11.6
2019-03-06T05:39:06.372Z,12.1
2019-03-06T05:44:29.088Z,11.8
2019-03-06T05:49:51.829Z,12.1
2019-03-06T05:55:14.453Z,12.9
2019-03-06T06:00:37.116Z,12.6
2019-03-06T06:05:59.793Z,12.9
2019-03-06T06:11:22.422Z,12.3
2019-03-06T06:16:45.123Z,11.4
2019-03-06T06:22:07.925Z,11.9
2019-03-06T06:27:30.649Z,12
2019-03-06T06:32:53.338Z,17.200001
2019-03-06T06:38:16.031Z,11.3
2019-03-06T06:43:38.735Z,12.1
2019-03-06T06:49:01.418Z,12.8
2019-03-06T06:54:24.342Z,10.6
2019-03-06T06:59:47.154Z,11.2
2019-03-06T07:05:10.002Z,10.7
2019-03-06T07:10:33.641Z,10.5
2019-03-06T07:15:56.542Z,9.7
2019-03-06T07:21:19.270Z,10.1
2019-03-06T07:26:42.031Z,9.5
2019-03-06T07:32:04.715Z,9.7
2019-03-06T07:37:28.758Z,10.9
2019-03-06T07:42:51.019Z,11
2019-03-06T07:48:14.630Z,10.1
2019-03-06T07:53:37.424Z,9.6
2019-03-06T07:59:01.117Z,10
2019-03-06T08:04:23.937Z,12.1
2019-03-06T08:09:46.977Z,11.8
2019-03-06T08:15:09.493Z,10.3
2019-03-06T08:20:32.459Z,10.5
2019-03-06T08:25:56.002Z,10.2
2019-03-06T08:31:18.712Z,9.5
2019-03-06T08:36:41.477Z,9.3
2019-03-06T08:42:04.366Z,9.2
2019-03-06T08:47:27.110Z,9.6
2019-03-06T08:52:49.776Z,9.4
2019-03-06T08:58:12.519Z,9.1
2019-03-06T09:03:35.469Z,8.2
2019-03-06T09:08:59.972Z,8.9
2019-03-06T09:14:21.826Z,7.8
2019-03-06T09:19:44.563Z,7.9
2019-03-06T09:25:07.442Z,7.9
2019-03-06T09:30:30.042Z,7
2019-03-06T09:35:52.792Z,7.9
2019-03-06T09:41:15.667Z,7.8
2019-03-06T09:46:38.342Z,7.2
2019-03-06T09:52:02.093Z,7
2019-03-06T09:57:24.733Z,7.7
2019-03-06T10:02:48.543Z,6.5
2019-03-06T10:08:11.257Z,7.2
2019-03-06T10:13:37.192Z,6.9
2019-03-06T10:18:58.801Z,6.8
2019-03-06T10:24:21.654Z,6
2019-03-06T10:29:44.469Z,6.6
2019-03-06T10:35:07.330Z,6.2
2019-03-06T10:40:30.093Z,5.6
2019-03-06T10:45:52.833Z,5.1
2019-03-06T10:51:15.513Z,5.8
2019-03-06T10:56:38.225Z,4.7
2019-03-06T11:02:00.893Z,3.8
2019-03-06T11:07:23.622Z,3.6
2019-03-06T11:12:46.257Z,3.1
2019-03-06T11:18:09.205Z,3.8
2019-03-06T11:23:32.171Z,3.6
2019-03-06T11:28:54.889Z,3.7
2019-03-06T11:34:18.469Z,3.6
2019-03-06T11:39:41.905Z,3.4
2019-03-06T11:45:04.605Z,3.3
2019-03-06T11:50:28.273Z,3.3
2019-03-06T11:55:51.198Z,3.3
2019-03-06T12:01:14.986Z,3.2
2019-03-06T12:06:37.801Z,3.2
2019-03-06T12:12:00.545Z,3
2019-03-06T12:17:23.264Z,2.9
2019-03-06T12:22:45.944Z,2.9
2019-03-06T12:28:08.711Z,3.2
2019-03-06T12:33:31.467Z,2.9
2019-03-06T12:38:54.169Z,2.8
2019-03-06T12:44:16.934Z,2.6
2019-03-06T12:49:39.625Z,3
2019-03-06T12:55:02.294Z,3
2019-03-06T13:00:25.079Z,3.2
2019-03-06T13:05:47.809Z,2.9
2019-03-06T13:11:10.523Z,2.5
2019-03-06T13:16:33.247Z,3.5
2019-03-06T13:21:55.912Z,2.7
2019-03-06T13:27:18.592Z,2.9
2019-03-06T13:32:41.684Z,2.9
2019-03-06T13:38:04.493Z,2.4
2019-03-06T13:43:27.202Z,2.5
2019-03-06T13:48:50.029Z,2.3
2019-03-06T13:54:12.805Z,2.5
2019-03-06T13:59:36.675Z,2.4
2019-03-06T14:04:59.564Z,2.4
2019-03-06T14:10:23.151Z,2.5
2019-03-06T14:15:53.539Z,2.2
2019-03-06T14:21:10.086Z,2.1
2019-03-06T14:26:32.762Z,2.3
2019-03-06T14:31:55.491Z,2.3
2019-03-06T14:37:18.201Z,2.5
2019-03-06T14:42:40.848Z,2.9
2019-03-06T14:48:03.739Z,9.8
2019-03-06T14:53:26.361Z,6.9
2019-03-06T14:58:49.073Z,2.3
2019-03-06T15:04:11.698Z,2.2
2019-03-06T15:09:35.391Z,2.4
2019-03-06T15:14:58.702Z,2.8
2019-03-06T15:20:21.516Z,2.1
2019-03-06T15:25:44.205Z,2.1
2019-03-06T15:31:06.921Z,2.3
2019-03-06T15:36:29.795Z,2.2
2019-03-06T15:42:00.041Z,1.9
2019-03-06T15:47:16.518Z,2.2
2019-03-06T15:52:39.178Z,2.3
2019-03-06T15:58:01.881Z,2.1
2019-03-06T16:03:24.688Z,1.9
2019-03-06T16:08:47.584Z,2
2019-03-06T16:14:10.241Z,2
2019-03-06T16:19:33.051Z,2
2019-03-06T16:24:55.677Z,1.9
2019-03-06T16:30:18.394Z,2.1
2019-03-06T16:35:41.044Z,2.2
2019-03-06T16:41:03.709Z,2.1
2019-03-06T16:46:27.289Z,2.2
2019-03-06T16:51:51.305Z,1.9
2019-03-06T16:57:16.317Z,2.3
2019-03-06T17:02:39.054Z,2.1
2019-03-06T17:08:02.515Z,2.5
2019-03-06T17:13:25.512Z,2.3
2019-03-06T17:18:48.525Z,2.1
2019-03-06T17:24:11.326Z,2.6
2019-03-06T17:29:33.940Z,2.3
2019-03-06T17:34:56.752Z,2.5
2019-03-06T17:40:19.410Z,2.4
2019-03-06T17:45:42.141Z,2.4
2019-03-06T17:51:04.814Z,2.7
2019-03-06T17:56:27.609Z,2.8
2019-03-06T18:01:51.828Z,2.5
2019-03-06T18:07:15.138Z,2.5
2019-03-06T18:12:37.935Z,2.6
2019-03-06T18:18:00.885Z,2.3
2019-03-06T18:23:25.298Z,2.1
2019-03-06T18:28:50.891Z,2.5
2019-03-06T18:34:13.530Z,2.7
2019-03-06T18:39:36.192Z,2.5
2019-03-06T18:44:59.825Z,2.6
2019-03-06T18:50:22.700Z,2.7
2019-03-06T18:55:45.431Z,2.6
2019-03-06T19:01:08.446Z,2.8
2019-03-06T19:06:31.126Z,2.8
2019-03-06T19:11:54.272Z,2.7
2019-03-06T19:17:19.519Z,2.9
2019-03-06T19:22:42.277Z,2.7
2019-03-06T19:28:06.868Z,2.7
2019-03-06T19:33:29.571Z,2.8
2019-03-06T19:38:52.546Z,2.6
2019-03-06T19:44:15.204Z,3
2019-03-06T19:49:37.872Z,2.9
2019-03-06T19:55:00.676Z,3
2019-03-06T20:00:23.456Z,3
2019-03-06T20:05:46.276Z,3.2
2019-03-06T20:11:08.957Z,2.7
2019-03-06T20:16:31.647Z,3
2019-03-06T20:21:54.463Z,2.6
2019-03-06T20:27:17.211Z,3
2019-03-06T20:32:40.034Z,2.8
2019-03-06T20:38:03.375Z,3.2
2019-03-06T20:43:26.933Z,3.3
2019-03-06T20:48:49.674Z,3
2019-03-06T20:54:12.290Z,3.1
2019-03-06T20:59:35.053Z,3.2
2019-03-06T21:04:57.668Z,3.2
2019-03-06T21:10:20.325Z,3.1
2019-03-06T21:15:43.111Z,2.9
2019-03-06T21:21:05.745Z,3.2
2019-03-06T21:26:28.421Z,3.2
2019-03-06T21:31:51.065Z,3.4
2019-03-06T21:37:13.901Z,3.5
2019-03-06T21:42:36.600Z,3.7
2019-03-06T21:47:59.278Z,3.5
2019-03-06T21:53:21.993Z,3.7
2019-03-06T21:58:44.608Z,3.5
2019-03-06T22:04:07.376Z,3.7
2019-03-06T22:09:30.076Z,4.2
2019-03-06T22:14:52.874Z,3.5
2019-03-06T22:20:15.721Z,4.1
2019-03-06T22:25:39.029Z,3.9
2019-03-06T22:31:01.675Z,3.8
2019-03-06T22:36:24.419Z,4.1
2019-03-06T22:41:47.478Z,4.1
2019-03-06T22:47:10.661Z,4.1
2019-03-06T22:52:33.302Z,4.2
2019-03-06T22:57:55.944Z,4.3
2019-03-06T23:03:18.609Z,4.2
2019-03-06T23:08:41.442Z,4.7
2019-03-06T23:14:04.943Z,4.6
2019-03-06T23:19:28.509Z,4.1
2019-03-06T23:24:51.437Z,4.4
2019-03-06T23:30:14.210Z,4.2
2019-03-06T23:35:37.196Z,4.3
2019-03-06T23:41:00.433Z,4.2
2019-03-06T23:46:23.938Z,4.5
2019-03-06T23:51:47.217Z,4.6
2019-03-06T23:57:10.000Z,4
